createdAt,value
2023-04-09T00:01:25.434Z,102438.28
2023-04-09T00:03:52.778Z,102441.13
2023-04-09T00:06:19.277Z,102438.34
2023-04-09T00:08:45.898Z,102432.63
2023-04-09T00:11:13.826Z,102429.50
2023-04-09T00:13:40.559Z,102428.31
2023-04-09T00:16:09.223Z,102425.47
2023-04-09T00:18:37.254Z,102426.16
2023-04-09T00:21:04.520Z,102431.25
2023-04-09T00:23:33.411Z,102421.69
2023-04-09T00:26:01.856Z,102420.06
2023-04-09T00:28:28.887Z,102418.03
2023-04-09T00:30:55.731Z,102415.56
2023-04-09T00:33:22.969Z,102423.19
2023-04-09T00:35:51.621Z,102425.34
2023-04-09T00:38:18.274Z,102425.25
2023-04-09T00:40:53.220Z,102426.09
2023-04-09T00:43:20.270Z,102427.31
2023-04-09T00:45:47.314Z,102430.91
2023-04-09T00:48:14.101Z,102423.75
2023-04-09T00:50:44.198Z,102433.44
2023-04-09T00:53:11.009Z,102422.56
2023-04-09T00:55:40.098Z,102415.09
2023-04-09T00:58:10.727Z,102410.00
2023-04-09T01:00:37.766Z,102413.72
2023-04-09T01:03:07.040Z,102411.63
2023-04-09T01:05:40.457Z,102412.47
2023-04-09T01:08:22.229Z,102415.19
2023-04-09T01:11:03.823Z,102408.84
2023-04-09T01:13:44.814Z,102408.81
2023-04-09T01:16:12.924Z,102412.47
2023-04-09T01:18:45.067Z,102413.47
2023-04-09T01:21:31.389Z,102415.25
2023-04-09T01:24:22.947Z,102418.91
2023-04-09T01:26:59.000Z,102417.72
2023-04-09T01:29:27.866Z,102410.53
2023-04-09T01:31:56.094Z,102414.75
2023-04-09T01:34:23.044Z,102408.66
2023-04-09T01:36:53.861Z,102406.53
2023-04-09T01:39:20.863Z,102404.63
2023-04-09T01:41:51.493Z,102410.63
2023-04-09T01:44:19.586Z,102412.56
2023-04-09T01:46:52.297Z,102407.28
2023-04-09T01:49:19.212Z,102399.53
2023-04-09T01:51:46.129Z,102410.47
2023-04-09T01:54:14.203Z,102410.53
2023-04-09T01:56:47.850Z,102405.16
2023-04-09T01:59:14.836Z,102400.22
2023-04-09T02:01:46.971Z,102397.44
2023-04-09T02:04:20.323Z,102406.88
2023-04-09T02:07:05.804Z,102398.09
2023-04-09T02:09:34.530Z,102406.25
2023-04-09T02:12:04.011Z,102416.78
2023-04-09T02:14:32.583Z,102407.38
2023-04-09T02:17:02.289Z,102414.56
2023-04-09T02:19:40.902Z,102410.81
2023-04-09T02:22:10.288Z,102400.94
2023-04-09T02:24:37.366Z,102403.19
2023-04-09T02:27:04.383Z,102400.03
2023-04-09T02:29:37.319Z,102399.56
2023-04-09T02:32:04.320Z,102394.19
2023-04-09T02:34:31.224Z,102387.09
2023-04-09T02:36:59.938Z,102386.06
2023-04-09T02:39:27.376Z,102378.16
2023-04-09T02:41:54.229Z,102380.75
2023-04-09T02:44:21.972Z,102370.97
2023-04-09T02:46:53.137Z,102372.44
2023-04-09T02:49:21.142Z,102378.22
2023-04-09T02:51:48.995Z,102361.84
2023-04-09T02:54:16.053Z,102364.47
2023-04-09T02:56:43.935Z,102362.28
2023-04-09T02:59:11.002Z,102354.75
2023-04-09T03:01:39.447Z,102355.84
2023-04-09T03:04:06.596Z,102351.84
2023-04-09T03:06:34.572Z,102351.09
2023-04-09T03:09:03.585Z,102355.00
2023-04-09T03:11:31.944Z,102359.63
2023-04-09T03:14:00.032Z,102357.88
2023-04-09T03:16:26.937Z,102352.00
2023-04-09T03:18:54.525Z,102364.03
2023-04-09T03:21:21.956Z,102351.19
2023-04-09T03:23:48.472Z,102350.63
2023-04-09T03:26:16.758Z,102357.63
2023-04-09T03:28:43.393Z,102352.00
2023-04-09T03:31:11.870Z,102355.41
2023-04-09T03:33:38.918Z,102351.16
2023-04-09T03:36:06.087Z,102358.19
2023-04-09T03:38:34.845Z,102357.06
2023-04-09T03:41:01.721Z,102359.06
2023-04-09T03:43:29.044Z,102354.69
2023-04-09T03:45:56.931Z,102348.91
2023-04-09T03:48:24.719Z,102360.50
2023-04-09T03:50:54.434Z,102362.25
2023-04-09T03:53:22.582Z,102360.47
2023-04-09T03:55:49.929Z,102363.31
2023-04-09T03:58:17.830Z,102365.25
2023-04-09T04:00:46.017Z,102361.22
2023-04-09T04:03:15.698Z,102365.13
2023-04-09T04:05:46.418Z,102361.22
2023-04-09T04:08:13.386Z,102362.06
2023-04-09T04:10:41.588Z,102359.06
2023-04-09T04:13:11.599Z,102360.72
2023-04-09T04:15:42.333Z,102362.66
2023-04-09T04:18:09.727Z,102365.66
2023-04-09T04:20:43.727Z,102363.38
2023-04-09T04:23:11.949Z,102373.50
2023-04-09T04:25:43.676Z,102373.09
2023-04-09T04:28:12.205Z,102377.31
2023-04-09T04:30:41.617Z,102374.22
2023-04-09T04:33:10.821Z,102379.16
2023-04-09T04:35:40.545Z,102373.69
2023-04-09T04:38:07.442Z,102377.31
2023-04-09T04:40:35.319Z,102374.69
2023-04-09T04:43:01.984Z,102365.94
2023-04-09T04:45:28.408Z,102367.22
2023-04-09T04:47:58.024Z,102378.25
2023-04-09T04:50:26.474Z,102381.97
2023-04-09T04:52:53.515Z,102360.84
2023-04-09T04:55:20.974Z,102368.81
2023-04-09T04:57:50.562Z,102371.66
2023-04-09T05:00:18.939Z,102367.19
2023-04-09T05:02:46.241Z,102368.59
2023-04-09T05:05:13.379Z,102370.16
2023-04-09T05:07:40.408Z,102359.84
2023-04-09T05:10:08.509Z,102361.88
2023-04-09T05:12:35.927Z,102365.75
2023-04-09T05:15:04.214Z,102375.09
2023-04-09T05:17:31.395Z,102383.28
2023-04-09T05:19:58.547Z,102377.84
2023-04-09T05:22:25.871Z,102380.69
2023-04-09T05:24:54.104Z,102389.31
2023-04-09T05:27:22.158Z,102383.50
2023-04-09T05:29:48.972Z,102393.13
2023-04-09T05:32:16.279Z,102390.09
2023-04-09T05:34:44.442Z,102388.41
2023-04-09T05:37:11.080Z,102392.38
2023-04-09T05:39:38.172Z,102385.09
2023-04-09T05:42:07.201Z,102388.53
2023-04-09T05:44:34.493Z,102382.97
2023-04-09T05:47:01.382Z,102374.03
2023-04-09T05:49:28.405Z,102378.53
2023-04-09T05:51:57.014Z,102381.56
2023-04-09T05:54:23.573Z,102389.81
2023-04-09T05:56:51.132Z,102389.63
2023-04-09T05:59:18.532Z,102388.41
2023-04-09T06:01:45.797Z,102392.50
2023-04-09T06:04:12.810Z,102395.63
2023-04-09T06:06:39.510Z,102385.44
2023-04-09T06:09:07.440Z,102389.53
2023-04-09T06:11:34.487Z,102387.97
2023-04-09T06:14:01.266Z,102386.50
2023-04-09T06:16:31.914Z,102385.72
2023-04-09T06:18:59.796Z,102382.50
2023-04-09T06:21:26.897Z,102394.47
2023-04-09T06:23:54.208Z,102396.69
2023-04-09T06:26:21.574Z,102394.09
2023-04-09T06:28:49.044Z,102401.22
2023-04-09T06:31:16.073Z,102402.88
2023-04-09T06:33:43.544Z,102407.22
2023-04-09T06:36:10.271Z,102405.69
2023-04-09T06:38:37.634Z,102403.94
2023-04-09T06:41:08.333Z,102406.84
2023-04-09T06:43:37.703Z,102399.97
2023-04-09T06:46:04.519Z,102397.75
2023-04-09T06:48:33.206Z,102407.22
2023-04-09T06:51:00.867Z,102401.69
2023-04-09T06:53:28.628Z,102402.59
2023-04-09T06:55:56.751Z,102412.03
2023-04-09T06:58:24.135Z,102407.88
2023-04-09T07:00:51.211Z,102407.75
2023-04-09T07:03:18.243Z,102412.25
2023-04-09T07:05:45.134Z,102421.38
2023-04-09T07:08:12.869Z,102413.88
2023-04-09T07:10:40.035Z,102421.53
2023-04-09T07:13:06.827Z,102406.94
2023-04-09T07:15:33.771Z,102403.97
2023-04-09T07:18:01.163Z,102406.97
2023-04-09T07:20:29.102Z,102411.97
2023-04-09T07:22:55.529Z,102406.22
2023-04-09T07:25:22.378Z,102407.31
2023-04-09T07:27:49.986Z,102399.66
2023-04-09T07:30:16.546Z,102403.38
2023-04-09T07:32:43.511Z,102405.78
2023-04-09T07:35:10.538Z,102399.53
2023-04-09T07:37:38.301Z,102393.78
2023-04-09T07:40:06.027Z,102400.22
2023-04-09T07:42:32.869Z,102398.50
2023-04-09T07:44:59.564Z,102409.81
2023-04-09T07:47:28.839Z,102401.78
2023-04-09T07:49:56.464Z,102412.47
2023-04-09T07:52:25.021Z,102405.22
2023-04-09T07:54:51.729Z,102407.00
2023-04-09T07:57:18.749Z,102407.56
2023-04-09T07:59:45.674Z,102413.38
2023-04-09T08:02:15.450Z,102411.72
2023-04-09T08:04:47.252Z,102414.88
2023-04-09T08:07:15.173Z,102418.13
2023-04-09T08:09:44.483Z,102417.75
2023-04-09T08:12:11.972Z,102409.38
2023-04-09T08:14:38.770Z,102409.28
2023-04-09T08:17:05.509Z,102407.06
2023-04-09T08:19:32.367Z,102411.50
2023-04-09T08:21:59.238Z,102406.16
2023-04-09T08:24:26.288Z,102410.00
2023-04-09T08:26:53.713Z,102399.88
2023-04-09T08:29:20.740Z,102401.25
2023-04-09T08:31:48.557Z,102404.38
2023-04-09T08:34:17.646Z,102414.59
2023-04-09T08:36:47.774Z,102409.75
2023-04-09T08:39:15.791Z,102405.19
2023-04-09T08:41:48.608Z,102411.22
2023-04-09T08:44:18.511Z,102406.97
2023-04-09T08:46:51.151Z,102407.66
2023-04-09T08:49:18.241Z,102411.78
2023-04-09T08:51:49.166Z,102412.47
2023-04-09T08:54:17.661Z,102416.69
2023-04-09T08:56:44.734Z,102416.91
2023-04-09T08:59:11.569Z,102426.88
2023-04-09T09:01:38.576Z,102416.97
2023-04-09T09:04:08.655Z,102418.38
2023-04-09T09:06:36.598Z,102421.00
2023-04-09T09:09:08.025Z,102415.97
2023-04-09T09:11:35.743Z,102418.69
2023-04-09T09:14:02.726Z,102412.66
2023-04-09T09:16:29.765Z,102415.34
2023-04-09T09:18:57.436Z,102414.44
2023-04-09T09:21:24.452Z,102418.63
2023-04-09T09:23:51.197Z,102422.94
2023-04-09T09:26:18.575Z,102416.06
2023-04-09T09:28:47.017Z,102413.75
2023-04-09T09:31:14.054Z,102418.03
2023-04-09T09:33:42.072Z,102410.75
2023-04-09T09:36:12.340Z,102413.81
2023-04-09T09:38:56.369Z,102405.25
2023-04-09T09:41:23.508Z,102403.72
2023-04-09T09:43:51.564Z,102406.38
2023-04-09T09:46:18.371Z,102408.41
2023-04-09T09:48:49.708Z,102405.66
2023-04-09T09:51:17.352Z,102405.28
2023-04-09T09:53:46.569Z,102409.06
2023-04-09T09:56:20.376Z,102412.59
2023-04-09T09:58:55.091Z,102414.41
2023-04-09T10:01:26.193Z,102409.53
2023-04-09T10:03:53.699Z,102409.75
2023-04-09T10:06:21.602Z,102412.16
2023-04-09T10:08:50.774Z,102415.00
2023-04-09T10:11:18.585Z,102419.13
2023-04-09T10:13:50.681Z,102412.97
2023-04-09T10:16:18.051Z,102411.69
2023-04-09T10:18:45.855Z,102415.25
2023-04-09T10:21:16.912Z,102411.34
2023-04-09T10:23:45.111Z,102408.31
2023-04-09T10:26:12.096Z,102400.78
2023-04-09T10:28:39.138Z,102406.53
2023-04-09T10:31:06.921Z,102401.47
2023-04-09T10:33:34.140Z,102400.13
2023-04-09T10:36:06.099Z,102401.66
2023-04-09T10:38:38.776Z,102406.56
2023-04-09T10:41:11.747Z,102404.22
2023-04-09T10:43:40.093Z,102397.28
2023-04-09T10:46:09.204Z,102398.75
2023-04-09T10:48:36.065Z,102394.06
2023-04-09T10:51:05.870Z,102398.16
2023-04-09T10:53:32.597Z,102391.25
2023-04-09T10:56:01.438Z,102402.72
2023-04-09T10:58:28.198Z,102397.16
2023-04-09T11:00:55.754Z,102395.22
2023-04-09T11:03:31.849Z,102399.91
2023-04-09T11:06:01.420Z,102392.88
2023-04-09T11:08:29.160Z,102390.38
2023-04-09T11:10:58.448Z,102392.88
2023-04-09T11:13:26.044Z,102390.31
2023-04-09T11:15:54.351Z,102391.06
2023-04-09T11:18:23.533Z,102385.50
2023-04-09T11:20:51.694Z,102386.72
2023-04-09T11:23:19.224Z,102381.84
2023-04-09T11:25:49.404Z,102384.16
2023-04-09T11:28:17.137Z,102381.50
2023-04-09T11:30:44.064Z,102375.78
2023-04-09T11:33:10.783Z,102380.84
2023-04-09T11:35:38.068Z,102380.19
2023-04-09T11:38:11.982Z,102385.22
2023-04-09T11:40:47.872Z,102379.19
2023-04-09T11:43:16.878Z,102376.31
2023-04-09T11:45:44.905Z,102377.78
2023-04-09T11:48:12.361Z,102370.97
2023-04-09T11:50:39.068Z,102371.13
2023-04-09T11:53:22.864Z,102377.28
2023-04-09T11:55:53.597Z,102367.06
2023-04-09T11:58:24.553Z,102365.94
2023-04-09T12:00:55.556Z,102369.06
2023-04-09T12:03:29.288Z,102360.22
2023-04-09T12:05:56.266Z,102351.47
2023-04-09T12:08:23.984Z,102359.69
2023-04-09T12:10:53.677Z,102363.31
2023-04-09T12:13:20.840Z,102348.22
2023-04-09T12:15:49.059Z,102355.97
2023-04-09T12:18:16.799Z,102350.22
2023-04-09T12:20:44.234Z,102356.63
2023-04-09T12:23:12.137Z,102352.81
2023-04-09T12:25:39.781Z,102347.94
2023-04-09T12:28:08.378Z,102349.63
2023-04-09T12:30:35.786Z,102342.72
2023-04-09T12:33:03.606Z,102346.63
2023-04-09T12:35:30.448Z,102345.50
2023-04-09T12:38:00.700Z,102342.91
2023-04-09T12:40:28.571Z,102337.38
2023-04-09T12:42:55.887Z,102338.38
2023-04-09T12:45:25.482Z,102335.47
2023-04-09T12:47:53.005Z,102332.72
2023-04-09T12:50:20.281Z,102325.88
2023-04-09T12:52:47.311Z,102333.28
2023-04-09T12:55:15.849Z,102333.50
2023-04-09T12:57:48.188Z,102336.56
2023-04-09T13:00:15.578Z,102341.00
2023-04-09T13:02:42.459Z,102342.66
2023-04-09T13:05:09.687Z,102329.31
2023-04-09T13:07:36.596Z,102336.06
2023-04-09T13:10:04.004Z,102328.28
2023-04-09T13:12:33.242Z,102327.31
2023-04-09T13:15:00.701Z,102324.69
2023-04-09T13:17:27.600Z,102324.59
2023-04-09T13:19:55.599Z,102312.09
2023-04-09T13:22:22.266Z,102310.06
2023-04-09T13:24:49.313Z,102317.56
2023-04-09T13:27:17.197Z,102307.47
2023-04-09T13:29:43.832Z,102315.06
2023-04-09T13:32:11.360Z,102307.06
2023-04-09T13:34:39.924Z,102307.19
2023-04-09T13:37:07.050Z,102300.16
2023-04-09T13:39:34.034Z,102296.56
2023-04-09T13:42:07.260Z,102292.81
2023-04-09T13:44:36.716Z,102292.59
2023-04-09T13:47:03.721Z,102291.22
2023-04-09T13:49:30.943Z,102295.84
2023-04-09T13:51:58.100Z,102294.63
2023-04-09T13:54:24.771Z,102292.13
2023-04-09T13:56:52.283Z,102283.84
2023-04-09T13:59:19.925Z,102277.25
2023-04-09T14:01:47.810Z,102279.28
2023-04-09T14:04:14.664Z,102274.50
2023-04-09T14:06:42.477Z,102280.19
2023-04-09T14:09:10.677Z,102282.66
2023-04-09T14:11:38.970Z,102282.25
2023-04-09T14:14:05.877Z,102277.66
2023-04-09T14:16:33.380Z,102283.75
2023-04-09T14:19:00.642Z,102272.66
2023-04-09T14:21:30.904Z,102266.97
2023-04-09T14:23:59.157Z,102262.47
2023-04-09T14:26:29.061Z,102266.88
2023-04-09T14:28:57.422Z,102273.00
2023-04-09T14:31:24.980Z,102280.75
2023-04-09T14:33:52.880Z,102275.25
2023-04-09T14:36:20.025Z,102278.34
2023-04-09T14:38:48.751Z,102279.38
2023-04-09T14:41:15.601Z,102280.69
2023-04-09T14:43:42.868Z,102276.22
2023-04-09T14:46:12.167Z,102267.91
2023-04-09T14:48:43.595Z,102264.88
2023-04-09T14:51:11.363Z,102264.91
2023-04-09T14:53:39.821Z,102262.25
2023-04-09T14:56:08.781Z,102263.44
2023-04-09T14:58:36.806Z,102265.19
2023-04-09T15:01:05.849Z,102264.28
2023-04-09T15:03:33.603Z,102258.91
2023-04-09T15:06:02.349Z,102249.66
2023-04-09T15:08:29.128Z,102254.81
2023-04-09T15:10:55.939Z,102251.50
2023-04-09T15:13:22.660Z,102256.72
2023-04-09T15:15:49.332Z,102242.41
2023-04-09T15:18:17.012Z,102238.00
2023-04-09T15:20:44.571Z,102231.31
2023-04-09T15:23:11.390Z,102228.78
2023-04-09T15:25:39.222Z,102223.53
2023-04-09T15:28:11.886Z,102231.03
2023-04-09T15:30:39.121Z,102214.97
2023-04-09T15:33:06.324Z,102209.94
2023-04-09T15:35:33.858Z,102207.78
2023-04-09T15:38:02.281Z,102222.56
2023-04-09T15:40:29.545Z,102220.25
2023-04-09T15:42:56.461Z,102220.88
2023-04-09T15:45:25.653Z,102229.56
2023-04-09T15:47:52.338Z,102221.88
2023-04-09T15:50:19.567Z,102220.13
2023-04-09T15:52:47.540Z,102228.81
2023-04-09T15:55:14.631Z,102220.00
2023-04-09T15:57:41.628Z,102223.03
2023-04-09T16:00:10.588Z,102230.28
2023-04-09T16:02:39.096Z,102228.44
2023-04-09T16:05:07.867Z,102225.28
2023-04-09T16:07:34.687Z,102218.53
2023-04-09T16:10:01.822Z,102219.16
2023-04-09T16:12:28.769Z,102215.25
2023-04-09T16:14:55.757Z,102214.94
2023-04-09T16:17:22.717Z,102212.50
2023-04-09T16:19:49.548Z,102211.06
2023-04-09T16:22:17.959Z,102209.63
2023-04-09T16:24:45.333Z,102208.50
2023-04-09T16:27:14.577Z,102208.13
2023-04-09T16:29:41.118Z,102195.81
2023-04-09T16:32:08.354Z,102195.06
2023-04-09T16:34:35.282Z,102206.34
2023-04-09T16:37:03.576Z,102198.81
2023-04-09T16:39:30.553Z,102197.44
2023-04-09T16:41:58.239Z,102192.13
2023-04-09T16:44:25.678Z,102191.44
2023-04-09T16:46:52.274Z,102189.16
2023-04-09T16:49:19.077Z,102191.59
2023-04-09T16:51:46.132Z,102188.78
2023-04-09T16:54:13.077Z,102190.19
2023-04-09T16:56:40.197Z,102184.03
2023-04-09T16:59:06.767Z,102186.88
2023-04-09T17:01:35.385Z,102192.03
2023-04-09T17:04:03.365Z,102187.53
2023-04-09T17:06:30.295Z,102190.72
2023-04-09T17:08:57.748Z,102195.44
2023-04-09T17:11:38.641Z,102196.88
2023-04-09T17:14:05.801Z,102190.13
2023-04-09T17:16:33.320Z,102180.00
2023-04-09T17:19:37.514Z,102191.09
2023-04-09T17:22:04.737Z,102191.63
2023-04-09T17:24:32.163Z,102202.63
2023-04-09T17:26:59.093Z,102196.75
2023-04-09T17:29:25.781Z,102193.44
2023-04-09T17:31:53.422Z,102196.03
2023-04-09T17:34:24.559Z,102193.50
2023-04-09T17:36:58.800Z,102184.97
2023-04-09T17:39:25.613Z,102194.72
2023-04-09T17:41:56.300Z,102191.38
2023-04-09T17:44:24.874Z,102201.16
2023-04-09T17:46:54.497Z,102202.44
2023-04-09T17:49:22.450Z,102198.63
2023-04-09T17:51:51.080Z,102197.78
2023-04-09T17:54:18.375Z,102201.91
2023-04-09T17:56:45.762Z,102201.28
2023-04-09T17:59:13.736Z,102197.84
2023-04-09T18:01:41.918Z,102205.88
2023-04-09T18:04:09.044Z,102206.22
2023-04-09T18:06:36.408Z,102210.47
2023-04-09T18:09:03.339Z,102212.59
2023-04-09T18:11:30.465Z,102211.38
2023-04-09T18:13:57.111Z,102215.78
2023-04-09T18:16:24.432Z,102218.34
2023-04-09T18:18:52.743Z,102222.34
2023-04-09T18:21:20.502Z,102220.59
2023-04-09T18:23:47.720Z,102217.66
2023-04-09T18:26:14.897Z,102209.22
2023-04-09T18:28:42.260Z,102213.28
2023-04-09T18:31:11.715Z,102211.25
2023-04-09T18:33:38.579Z,102204.59
2023-04-09T18:36:05.727Z,102208.88
2023-04-09T18:38:32.575Z,102197.16
2023-04-09T18:41:02.553Z,102210.19
2023-04-09T18:43:29.800Z,102205.03
2023-04-09T18:45:58.147Z,102207.13
2023-04-09T18:48:26.684Z,102206.66
2023-04-09T18:50:53.584Z,102209.13
2023-04-09T18:53:20.326Z,102214.13
2023-04-09T18:55:47.170Z,102211.75
2023-04-09T18:58:15.571Z,102221.16
2023-04-09T19:00:44.353Z,102216.97
2023-04-09T19:03:12.465Z,102216.91
2023-04-09T19:05:40.108Z,102218.56
2023-04-09T19:08:07.863Z,102230.19
2023-04-09T19:10:37.263Z,102226.56
2023-04-09T19:13:05.315Z,102226.47
2023-04-09T19:15:32.681Z,102233.75
2023-04-09T19:17:59.291Z,102233.66
2023-04-09T19:20:26.411Z,102236.16
2023-04-09T19:22:54.672Z,102231.75
2023-04-09T19:25:23.161Z,102240.72
2023-04-09T19:27:49.766Z,102252.16
2023-04-09T19:30:18.306Z,102250.34
2023-04-09T19:32:46.770Z,102247.81
2023-04-09T19:35:14.145Z,102242.44
2023-04-09T19:37:43.079Z,102242.28
2023-04-09T19:40:10.639Z,102244.75
2023-04-09T19:42:37.766Z,102230.66
2023-04-09T19:45:04.826Z,102242.81
2023-04-09T19:47:31.843Z,102243.81
2023-04-09T19:49:58.617Z,102247.84
2023-04-09T19:52:26.648Z,102241.00
2023-04-09T19:54:55.131Z,102249.72
2023-04-09T19:57:22.205Z,102241.31
2023-04-09T19:59:49.876Z,102245.28
2023-04-09T20:02:18.563Z,102241.66
2023-04-09T20:04:45.495Z,102244.78
2023-04-09T20:07:12.556Z,102245.59
2023-04-09T20:09:41.904Z,102237.00
2023-04-09T20:12:10.270Z,102234.34
2023-04-09T20:14:38.291Z,102242.72
2023-04-09T20:17:05.723Z,102242.84
2023-04-09T20:19:32.601Z,102243.41
2023-04-09T20:22:02.525Z,102239.47
2023-04-09T20:24:29.672Z,102239.59
2023-04-09T20:26:56.691Z,102242.59
2023-04-09T20:29:23.897Z,102245.56
2023-04-09T20:31:57.761Z,102246.13
2023-04-09T20:34:27.031Z,102242.19
2023-04-09T20:36:54.016Z,102239.56
2023-04-09T20:39:23.567Z,102229.72
2023-04-09T20:41:51.120Z,102231.97
2023-04-09T20:44:22.819Z,102222.84
2023-04-09T20:46:49.644Z,102216.19
2023-04-09T20:49:18.159Z,102218.06
2023-04-09T20:51:44.840Z,102224.34
2023-04-09T20:54:11.458Z,102223.22
2023-04-09T20:56:40.643Z,102217.06
2023-04-09T20:59:08.546Z,102217.69
2023-04-09T21:01:36.811Z,102218.34
2023-04-09T21:04:04.048Z,102216.69
2023-04-09T21:06:32.099Z,102222.44
2023-04-09T21:09:01.418Z,102214.59
2023-04-09T21:11:28.273Z,102225.81
2023-04-09T21:13:55.764Z,102213.47
2023-04-09T21:16:25.731Z,102216.41
2023-04-09T21:18:53.862Z,102208.72
2023-04-09T21:21:22.367Z,102210.75
2023-04-09T21:23:50.693Z,102207.13
2023-04-09T21:26:17.726Z,102207.19
2023-04-09T21:28:44.393Z,102213.00
2023-04-09T21:31:11.449Z,102203.47
2023-04-09T21:33:39.934Z,102213.69
2023-04-09T21:36:08.051Z,102212.66
2023-04-09T21:38:35.035Z,102208.22
2023-04-09T21:41:01.873Z,102214.75
2023-04-09T21:43:29.459Z,102210.06
2023-04-09T21:46:02.152Z,102202.56
2023-04-09T21:48:30.889Z,102198.50
2023-04-09T21:50:58.718Z,102206.09
2023-04-09T21:53:27.293Z,102201.88
2023-04-09T21:55:54.265Z,102204.00
2023-04-09T21:58:21.326Z,102203.75
2023-04-09T22:00:48.629Z,102199.41
2023-04-09T22:03:16.290Z,102200.78
2023-04-09T22:05:43.216Z,102207.41
2023-04-09T22:08:09.965Z,102209.66
2023-04-09T22:10:36.675Z,102206.28
2023-04-09T22:13:03.317Z,102206.28
2023-04-09T22:15:32.821Z,102202.38
2023-04-09T22:17:59.796Z,102204.47
2023-04-09T22:20:27.968Z,102199.13
2023-04-09T22:22:55.751Z,102198.84
2023-04-09T22:25:22.836Z,102195.50
2023-04-09T22:27:54.309Z,102193.63
2023-04-09T22:30:21.949Z,102192.22
2023-04-09T22:32:49.308Z,102197.13
2023-04-09T22:35:18.655Z,102197.09
2023-04-09T22:37:47.304Z,102195.84
2023-04-09T22:40:16.008Z,102194.72
2023-04-09T22:42:43.742Z,102199.78
2023-04-09T22:45:11.238Z,102201.38
2023-04-09T22:47:41.095Z,102206.91
2023-04-09T22:50:08.987Z,102202.09
2023-04-09T22:52:36.322Z,102200.59
2023-04-09T22:55:04.311Z,102200.00
2023-04-09T22:57:31.298Z,102194.97
2023-04-09T22:59:57.975Z,102195.50
2023-04-09T23:02:24.941Z,102197.78
2023-04-09T23:04:54.574Z,102193.56
2023-04-09T23:07:23.796Z,102187.66
2023-04-09T23:09:51.552Z,102184.44
2023-04-09T23:12:18.516Z,102189.59
2023-04-09T23:14:49.002Z,102184.00
2023-04-09T23:17:19.393Z,102189.03
2023-04-09T23:19:46.101Z,102186.72
2023-04-09T23:22:13.553Z,102187.44
2023-04-09T23:24:40.660Z,102188.97
2023-04-09T23:27:07.909Z,102187.41
2023-04-09T23:29:36.290Z,102184.19
2023-04-09T23:32:04.219Z,102187.31
2023-04-09T23:34:31.474Z,102187.50
2023-04-09T23:36:58.953Z,102188.94
2023-04-09T23:39:26.057Z,102182.47
2023-04-09T23:41:54.138Z,102181.97
2023-04-09T23:44:22.437Z,102194.06
2023-04-09T23:46:49.367Z,102190.97
2023-04-09T23:49:17.253Z,102190.97
2023-04-09T23:51:45.188Z,102193.16
2023-04-09T23:54:13.728Z,102186.75
2023-04-09T23:56:40.912Z,102185.78
2023-04-09T23:59:09.505Z,102190.00
